Date,TemperatureHighF,TemperatureAvgF,TemperatureLowF,DewpointHighF,DewpointAvgF,DewpointLowF,HumidityHigh,HumidityAvg,HumidityLow,PressureMaxIn,PressureMinIn,WindSpeedMaxMPH,WindSpeedAvgMPH,GustSpeedMaxMPH,PrecipitationSumIn
2013-1-1,47,43,38,46,39,31,95,86,76,30.23,29.99,13,5,13,0.01
2013-1-2,41,38,33,31,30,27,83,73,67,30.29,30.20,8,2,11,0.00
2013-1-3,48,41,27,33,30,24,88,66,49,30.41,30.28,19,4,19,0.00
2013-1-4,54,46,40,38,34,31,76,63,47,30.47,30.32,10,3,10,0.00
2013-1-5,54,45,38,43,38,33,92,79,62,30.33,30.17,12,3,12,0.01
2013-1-6,58,43,30,35,30,26,93,65,32,30.34,30.23,15,3,15,0.01
2013-1-7,58,48,30,39,34,22,78,59,44,30.28,30.06,10,4,10,0.00
2013-1-8,50,47,45,49,43,35,95,85,63,30.05,29.89,14,5,14,0.81
2013-1-9,58,54,50,56,53,48,96,95,93,30.05,29.88,28,10,28,2.06
2013-1-10,61,56,51,58,51,45,96,83,64,29.95,29.88,16,7,16,0.08
2013-1-11,72,60,48,61,52,44,89,77,54,29.93,29.73,18,8,18,0.00
2013-1-12,75,57,38,69,53,33,94,86,68,29.88,29.61,20,7,20,0.07
2013-1-13,44,37,32,33,28,23,82,70,53,30.20,29.88,15,7,15,0.02
2013-1-14,44,36,29,29,26,21,79,68,55,30.27,30.14,20,7,20,0.00
2013-1-15,36,34,31,32,30,24,94,85,66,30.17,30.08,15,3,15,0.12
2013-1-16,48,37,28,28,24,21,81,61,41,30.25,30.12,12,3,12,0.05
2013-1-17,60,46,35,38,31,25,73,59,40,30.44,30.19,10,3,10,0.00
2013-1-18,62,50,32,41,36,26,81,59,43,30.46,30.22,13,4,13,0.00
2013-1-19,63,51,38,49,42,34,90,72,56,30.24,30.11,16,5,16,0.00
2013-1-20,70,54,38,51,43,35,91,70,42,30.18,30.02,11,3,11,0.00
2013-1-21,57,47,38,42,37,32,93,69,50,30.23,30.07,16,4,16,0.00
2013-1-22,67,51,36,50,41,29,80,69,54,30.27,30.13,10,3,10,0.00
2013-1-23,72,60,49,58,53,45,89,76,60,30.25,30.08,19,8,19,0.00
2013-1-24,78,64,56,63,58,53,94,80,57,30.15,29.98,15,7,15,0.00
2013-1-25,62,52,49,58,47,42,93,83,75,30.14,29.99,12,5,14,0.00
2013-1-26,53,50,46,50,47,41,95,90,75,30.16,30.06,8,4,8,0.01
2013-1-27,76,64,51,64,59,50,96,84,61,30.06,29.89,20,7,20,0.00
2013-1-28,78,73,67,67,64,63,88,75,62,29.97,29.82,19,10,20,0.00
2013-1-29,78,68,54,67,61,44,85,79,65,29.83,29.42,25,11,25,0.15
2013-1-30,53,47,40,38,29,22,74,51,31,30.11,29.67,27,9,27,0.00
2013-1-31,68,50,36,33,27,23,61,44,21,30.24,30.05,26,7,26,0.00